Time;durP1;ratioP1;P1;durP2;ratioP2;P2;SDS_P1;SDS_P2;PMS_P1;PMS_P2;Temp;Humidity;BMP_temperature;BMP_pressure;BME280_temperature;BME280_humidity;BME280_pressure;Samples;Min_cycle;Max_cycle;Signal;HPM_P1;HPM_P2
2023/10/21 00:01:08;;;;;;;;;;;;;;;11.92;100.00;97627.75;5088715;28;20371;-73
2023/10/21 00:03:52;;;;;;;;;;;;;;;11.90;100.00;97625.34;5071660;28;19959;-73
2023/10/21 00:06:36;;;;;;;;;;;;;;;11.90;100.00;97630.13;5097670;28;19923;-73
2023/10/21 00:09:20;;;;;;;;;;;;;;;11.88;100.00;97633.25;5099119;28;20003;-73
2023/10/21 00:12:06;;;;;;;;;;;;;;;11.87;100.00;97625.28;5088209;28;19970;-73
2023/10/21 00:14:50;;;;;;;;;;;;;;;11.84;100.00;97638.75;5098453;28;19931;-73
2023/10/21 00:17:34;;;;;;;;;;;;;;;11.82;100.00;97640.28;5093267;28;19919;-73
2023/10/21 00:20:18;;;;;;;;;;;;;;;11.82;100.00;97652.19;5099917;28;19919;-73
2023/10/21 00:23:02;;;;;;;;;;;;;;;11.78;100.00;97659.69;5099199;28;19920;-73
2023/10/21 00:25:46;;;;;;;;;;;;;;;11.81;100.00;97664.50;5100267;28;19923;-73
2023/10/21 00:28:30;;;;;;;;;;;;;;;11.78;100.00;97662.47;5093543;28;19919;-73
2023/10/21 00:31:14;;;;;;;;;;;;;;;11.78;100.00;97665.25;5086310;28;19919;-73
2023/10/21 00:33:58;;;;;;;;;;;;;;;11.78;100.00;97658.88;5085294;28;19957;-73
2023/10/21 00:36:42;;;;;;;;;;;;;;;11.73;100.00;97657.22;5102780;28;20340;-73
2023/10/21 00:39:26;;;;;;;;;;;;;;;11.72;100.00;97661.16;5087229;28;19922;-73
2023/10/21 00:42:10;;;;;;;;;;;;;;;11.70;100.00;97657.13;5082531;28;19923;-73
2023/10/21 00:44:54;;;;;;;;;;;;;;;11.70;100.00;97665.47;5100269;28;19919;-73
2023/10/21 00:47:38;;;;;;;;;;;;;;;11.67;100.00;97661.47;5098981;28;19919;-73
2023/10/21 00:50:22;;;;;;;;;;;;;;;11.67;100.00;97661.47;5083806;28;19935;-73
2023/10/21 00:53:06;;;;;;;;;;;;;;;11.66;100.00;97664.63;5085630;28;19927;-73
2023/10/21 00:55:51;;;;;;;;;;;;;;;11.63;100.00;97666.16;5088642;28;19919;-73
2023/10/21 00:58:35;;;;;;;;;;;;;;;11.60;100.00;97666.91;5099708;28;19970;-73
2023/10/21 01:01:19;;;;;;;;;;;;;;;11.59;100.00;97666.13;5085297;28;20371;-73
2023/10/21 01:04:05;;;;;;;;;;;;;;;11.59;100.00;97671.69;5098304;28;19963;-73
2023/10/21 01:06:49;;;;;;;;;;;;;;;11.56;100.00;97666.03;5098090;28;19919;-73
2023/10/21 01:09:33;;;;;;;;;;;;;;;11.54;100.00;97679.50;5095417;28;19937;-73
2023/10/21 01:12:17;;;;;;;;;;;;;;;11.52;100.00;97673.50;5083834;28;20375;-73
2023/10/21 01:15:01;;;;;;;;;;;;;;;11.51;100.00;97672.72;5098302;28;19938;-73
2023/10/21 01:17:51;;;;;;;;;;;;;;;11.51;100.00;97674.69;5097644;28;19919;-73
2023/10/21 01:20:39;;;;;;;;;;;;;;;11.47;100.00;97679.38;5097638;28;19962;-73
2023/10/21 01:23:23;;;;;;;;;;;;;;;11.44;100.00;97674.56;5081304;28;20173;-73
2023/10/21 01:26:07;;;;;;;;;;;;;;;11.46;100.00;97681.34;5097211;28;19919;-73
2023/10/21 01:28:51;;;;;;;;;;;;;;;11.42;100.00;97683.25;5098192;28;19984;-73
2023/10/21 01:31:35;;;;;;;;;;;;;;;11.39;100.00;97679.25;5077789;28;20335;-73
2023/10/21 01:34:19;;;;;;;;;;;;;;;11.37;100.00;97676.03;5104355;28;19922;-73
2023/10/21 01:37:03;;;;;;;;;;;;;;;11.40;100.00;97672.50;5098893;28;20012;-73
2023/10/21 01:39:47;;;;;;;;;;;;;;;11.36;100.00;97677.19;5099117;28;19919;-73
2023/10/21 01:42:34;;;;;;;;;;;;;;;11.35;100.00;97675.59;5085299;28;19981;-73
2023/10/21 01:45:18;;;;;;;;;;;;;;;11.37;100.00;97689.13;5096098;28;19919;-74
2023/10/21 01:48:03;;;;;;;;;;;;;;;11.33;100.00;97689.03;5077618;28;19965;-73
2023/10/21 01:50:47;;;;;;;;;;;;;;;11.31;100.00;97683.06;5100739;28;20139;-73
2023/10/21 01:53:31;;;;;;;;;;;;;;;11.31;100.00;97683.06;5084799;28;19980;-73
2023/10/21 01:56:15;;;;;;;;;;;;;;;11.28;100.00;97681.03;5091852;28;19919;-73
2023/10/21 01:58:59;;;;;;;;;;;;;;;11.24;100.00;97677.38;5086365;28;19920;-73
2023/10/21 02:01:43;;;;;;;;;;;;;;;11.26;100.00;97679.78;5094699;28;19919;-73
2023/10/21 02:04:27;;;;;;;;;;;;;;;11.22;100.00;97688.03;5091535;28;19919;-73
2023/10/21 02:07:11;;;;;;;;;;;;;;;11.23;100.00;97689.66;5085911;28;19920;-73
2023/10/21 02:09:55;;;;;;;;;;;;;;;11.23;100.00;97686.88;5097228;28;19976;-73
2023/10/21 02:12:39;;;;;;;;;;;;;;;11.22;100.00;97681.69;5091965;28;19963;-73
2023/10/21 02:15:23;;;;;;;;;;;;;;;11.18;100.00;97668.53;5091211;28;19958;-73
2023/10/21 02:18:07;;;;;;;;;;;;;;;11.16;100.00;97684.75;5090420;28;19918;-73
2023/10/21 02:20:51;;;;;;;;;;;;;;;11.17;100.00;97683.59;5097784;28;20049;-73
2023/10/21 02:23:35;;;;;;;;;;;;;;;11.17;100.00;97682.75;5098227;28;20367;-73
2023/10/21 02:26:19;;;;;;;;;;;;;;;11.19;100.00;97688.75;5069590;28;19960;-73
2023/10/21 02:29:03;;;;;;;;;;;;;;;11.17;100.00;97688.31;5098168;28;19935;-73
2023/10/21 02:31:47;;;;;;;;;;;;;;;11.13;100.00;97679.13;5098041;28;19970;-73
2023/10/21 02:34:31;;;;;;;;;;;;;;;11.11;100.00;97678.69;5085322;28;19938;-73
2023/10/21 02:37:16;;;;;;;;;;;;;;;11.14;100.00;97683.50;5092802;28;19930;-73
2023/10/21 02:40:01;;;;;;;;;;;;;;;11.11;100.00;97678.69;5090880;28;19919;-73
2023/10/21 02:42:45;;;;;;;;;;;;;;;11.08;100.00;97673.88;5086058;28;19919;-73
2023/10/21 02:45:29;;;;;;;;;;;;;;;11.06;100.00;97679.81;5096821;28;20268;-73
2023/10/21 02:48:13;;;;;;;;;;;;;;;11.06;100.00;97688.13;5077728;28;19959;-73
2023/10/21 02:50:57;;;;;;;;;;;;;;;11.06;100.00;97690.06;5096606;28;19996;-73
2023/10/21 02:53:41;;;;;;;;;;;;;;;11.07;100.00;97683.38;5083918;28;20371;-73
2023/10/21 02:56:25;;;;;;;;;;;;;;;11.06;100.00;97687.31;5110123;28;20367;-73
2023/10/21 02:59:09;;;;;;;;;;;;;;;11.08;100.00;97690.53;5096661;28;20013;-73
2023/10/21 03:01:53;;;;;;;;;;;;;;;11.04;100.00;97684.13;5083374;28;19919;-73
2023/10/21 03:04:37;;;;;;;;;;;;;;;11.03;100.00;97685.25;5076420;28;20313;-73
2023/10/21 03:07:21;;;;;;;;;;;;;;;11.06;100.00;97693.69;5088242;28;19919;-73
2023/10/21 03:10:06;;;;;;;;;;;;;;;11.03;100.00;97685.25;5076781;28;19918;-73
2023/10/21 03:12:50;;;;;;;;;;;;;;;11.01;100.00;97679.28;5096989;28;19922;-73
2023/10/21 03:15:34;;;;;;;;;;;;;;;11.02;100.00;97687.25;5090560;28;19963;-73
2023/10/21 03:18:18;;;;;;;;;;;;;;;11.03;100.00;97693.59;5085684;28;19919;-73
2023/10/21 03:21:03;;;;;;;;;;;;;;;11.00;100.00;97686.78;5094442;28;19977;-73
2023/10/21 03:23:47;;;;;;;;;;;;;;;10.98;100.00;97683.59;5082268;28;19922;-73
2023/10/21 03:26:31;;;;;;;;;;;;;;;11.01;100.00;97691.19;5065741;28;19935;-73
2023/10/21 03:29:15;;;;;;;;;;;;;;;10.97;100.00;97693.09;5089332;28;19923;-73
2023/10/21 03:31:59;;;;;;;;;;;;;;;10.95;100.00;97687.13;5097326;28;19933;-73
2023/10/21 03:34:43;;;;;;;;;;;;;;;10.95;100.00;97689.88;5097050;28;19941;-73
2023/10/21 03:37:27;;;;;;;;;;;;;;;10.89;100.00;97678.28;5089203;28;20384;-73
2023/10/21 03:40:11;;;;;;;;;;;;;;;10.92;100.00;97685.03;5106071;28;19923;-73
2023/10/21 03:42:55;;;;;;;;;;;;;;;10.93;100.00;97684.69;5076153;28;19919;-74
2023/10/21 03:45:39;;;;;;;;;;;;;;;10.91;100.00;97681.47;5084148;28;19965;-73
2023/10/21 03:48:23;;;;;;;;;;;;;;;10.88;100.00;97671.09;5094407;28;19926;-73
2023/10/21 03:51:09;;;;;;;;;;;;;;;10.92;100.00;97676.72;5093775;28;19966;-73
2023/10/21 03:53:53;;;;;;;;;;;;;;;10.92;100.00;97682.25;5109128;27;20011;-73
2023/10/21 03:56:38;;;;;;;;;;;;;;;10.87;100.00;97675.03;5095727;28;20392;-73
2023/10/21 03:59:21;;;;;;;;;;;;;;;10.87;100.00;97679.81;5099956;28;19919;-73
2023/10/21 04:02:07;;;;;;;;;;;;;;;10.84;100.00;97680.53;5086930;28;19957;-73
2023/10/21 04:04:51;;;;;;;;;;;;;;;10.86;100.00;97678.19;5096634;28;19919;-73
2023/10/21 04:07:35;;;;;;;;;;;;;;;10.83;100.00;97682.47;5100835;28;20422;-73
2023/10/21 04:10:19;;;;;;;;;;;;;;;10.82;100.00;97688.41;5089688;28;19927;-73
2023/10/21 04:13:03;;;;;;;;;;;;;;;10.81;100.00;97682.06;5096587;28;20268;-73
2023/10/21 04:15:47;;;;;;;;;;;;;;;10.82;100.00;97689.22;5099850;28;20549;-73
2023/10/21 04:18:31;;;;;;;;;;;;;;;10.78;100.00;97691.13;5096207;28;19933;-73
2023/10/21 04:21:15;;;;;;;;;;;;;;;10.82;100.00;97686.44;5084128;28;19995;-73
2023/10/21 04:23:59;;;;;;;;;;;;;;;10.80;100.00;97686.00;5099476;28;19965;-73
2023/10/21 04:26:43;;;;;;;;;;;;;;;10.76;100.00;97687.91;5100465;28;19966;-73
2023/10/21 04:29:27;;;;;;;;;;;;;;;10.72;100.00;97689.78;5099197;28;19920;-73
2023/10/21 04:32:11;;;;;;;;;;;;;;;10.73;100.00;97688.63;5095447;28;19958;-73
2023/10/21 04:34:56;;;;;;;;;;;;;;;10.75;100.00;97691.81;5093577;28;19923;-73
2023/10/21 04:37:40;;;;;;;;;;;;;;;10.74;100.00;97693.00;5066395;28;20293;-73
2023/10/21 04:40:24;;;;;;;;;;;;;;;10.72;100.00;97687.81;5096012;28;20390;-73
2023/10/21 04:43:08;;;;;;;;;;;;;;;10.73;100.00;97694.19;5100226;28;20087;-73
2023/10/21 04:45:52;;;;;;;;;;;;;;;10.72;100.00;97698.09;5087150;28;19927;-73
2023/10/21 04:48:36;;;;;;;;;;;;;;;10.72;100.00;97701.69;5097550;28;19918;-73
2023/10/21 04:51:20;;;;;;;;;;;;;;;10.71;100.00;97708.41;5093021;28;20461;-73
2023/10/21 04:54:04;;;;;;;;;;;;;;;10.70;100.00;97709.59;5071361;28;20422;-73
2023/10/21 04:56:48;;;;;;;;;;;;;;;10.71;100.00;97702.06;5096317;28;20011;-73
2023/10/21 04:59:32;;;;;;;;;;;;;;;10.69;100.00;97701.59;5078041;28;20331;-73
2023/10/21 05:02:16;;;;;;;;;;;;;;;10.68;100.00;97703.59;5098575;28;19923;-73
2023/10/21 05:05:00;;;;;;;;;;;;;;;10.70;100.00;97703.25;5094939;28;20409;-73
2023/10/21 05:07:44;;;;;;;;;;;;;;;10.70;100.00;97700.47;5099209;28;19966;-73
2023/10/21 05:10:28;;;;;;;;;;;;;;;10.68;100.00;97708.34;5098380;28;19919;-73
2023/10/21 05:13:12;;;;;;;;;;;;;;;10.70;100.00;97706.00;5099265;28;20263;-73
2023/10/21 05:15:57;;;;;;;;;;;;;;;10.69;100.00;97702.41;5097941;28;19923;-73
2023/10/21 05:18:41;;;;;;;;;;;;;;;10.68;100.00;97702.78;5092163;28;19920;-73
2023/10/21 05:21:25;;;;;;;;;;;;;;;10.68;100.00;97700.81;5091699;28;19962;-73
2023/10/21 05:24:09;;;;;;;;;;;;;;;10.66;100.00;97699.56;5122647;27;19919;-73
2023/10/21 05:26:53;;;;;;;;;;;;;;;10.65;100.00;97714.63;5091778;28;19919;-73
2023/10/21 05:29:37;;;;;;;;;;;;;;;10.63;100.00;97708.63;5096353;28;19966;-74
2023/10/21 05:32:21;;;;;;;;;;;;;;;10.63;100.00;97700.28;5095475;28;19919;-73
2023/10/21 05:35:07;;;;;;;;;;;;;;;10.62;100.00;97696.72;5093560;28;19999;-73
2023/10/21 05:37:51;;;;;;;;;;;;;;;10.63;100.00;97709.41;5098342;28;20296;-73
2023/10/21 05:40:35;;;;;;;;;;;;;;;10.63;100.00;97708.63;5096381;28;20360;-73
2023/10/21 05:43:18;;;;;;;;;;;;;;;10.64;100.00;97710.22;5092439;28;19919;-73
2023/10/21 05:46:03;;;;;;;;;;;;;;;10.62;100.00;97702.28;5091958;28;19957;-73
2023/10/21 05:48:47;;;;;;;;;;;;;;;10.63;100.00;97714.16;5096393;28;19922;-73
2023/10/21 05:51:31;;;;;;;;;;;;;;;10.60;100.00;97714.91;5092557;28;19965;-73
2023/10/21 05:54:15;;;;;;;;;;;;;;;10.64;100.00;97707.44;5091431;28;20276;-73
2023/10/21 05:57:00;;;;;;;;;;;;;;;10.63;100.00;97714.97;5096757;28;20266;-73
2023/10/21 05:59:44;;;;;;;;;;;;;;;10.66;100.00;97713.44;5097816;28;19953;-73
2023/10/21 06:02:28;;;;;;;;;;;;;;;10.63;100.00;97720.53;5101682;28;19995;-73
2023/10/21 06:05:15;;;;;;;;;;;;;;;10.64;100.00;97722.16;5102244;28;19923;-73
2023/10/21 06:07:59;;;;;;;;;;;;;;;10.64;100.00;97718.53;5085037;28;19919;-73
2023/10/21 06:10:44;;;;;;;;;;;;;;;10.67;100.00;97723.38;5101139;28;20050;-74
2023/10/21 06:13:28;;;;;;;;;;;;;;;10.66;100.00;97719.00;5078062;28;19923;-73
2023/10/21 06:16:12;;;;;;;;;;;;;;;10.65;100.00;97726.53;5094942;28;19927;-73
2023/10/21 06:18:56;;;;;;;;;;;;;;;10.64;100.00;97729.66;5099021;28;19924;-73
2023/10/21 06:21:40;;;;;;;;;;;;;;;10.63;100.00;97734.41;5071052;28;19919;-73
2023/10/21 06:24:24;;;;;;;;;;;;;;;10.66;100.00;97727.31;5098122;28;19974;-73
2023/10/21 06:27:08;;;;;;;;;;;;;;;10.67;100.00;97731.69;5091311;28;19919;-73
2023/10/21 06:29:52;;;;;;;;;;;;;;;10.65;100.00;97739.59;5091083;28;19934;-73
2023/10/21 06:32:36;;;;;;;;;;;;;;;10.65;100.00;97740.41;5110511;28;19919;-73
2023/10/21 06:35:20;;;;;;;;;;;;;;;10.66;100.00;97743.97;5080270;28;19988;-73
2023/10/21 06:38:05;;;;;;;;;;;;;;;10.69;100.00;97740.47;5097508;28;19931;-73
2023/10/21 06:40:49;;;;;;;;;;;;;;;10.65;100.00;97734.03;5098093;28;20356;-73
2023/10/21 06:43:33;;;;;;;;;;;;;;;10.64;100.00;97735.19;5079078;28;19995;-73
2023/10/21 06:46:18;;;;;;;;;;;;;;;10.63;100.00;97739.94;5097369;28;20373;-73
2023/10/21 06:49:03;;;;;;;;;;;;;;;10.67;100.00;97743.63;5085399;28;19919;-73
2023/10/21 06:51:49;;;;;;;;;;;;;;;10.67;100.00;97742.78;5080102;28;20011;-73
2023/10/21 06:54:33;;;;;;;;;;;;;;;10.65;100.00;97745.94;5081812;28;20000;-73
2023/10/21 06:57:20;;;;;;;;;;;;;;;10.65;100.00;97743.16;5091621;28;19969;-73
2023/10/21 07:00:05;;;;;;;;;;;;;;;10.65;100.00;97750.69;5081414;28;19924;-73
2023/10/21 07:02:49;;;;;;;;;;;;;;;10.65;100.00;97761.81;5089826;28;20268;-73
2023/10/21 07:05:33;;;;;;;;;;;;;;;10.64;100.00;97765.72;5096478;28;19958;-73
2023/10/21 07:08:18;;;;;;;;;;;;;;;10.66;100.00;97768.94;5083661;28;19922;-73
2023/10/21 07:11:02;;;;;;;;;;;;;;;10.65;100.00;97767.34;5106073;28;19919;-74
2023/10/21 07:13:47;;;;;;;;;;;;;;;10.67;100.00;97765.00;5090417;28;19997;-74
2023/10/21 07:16:31;;;;;;;;;;;;;;;10.66;100.00;97768.94;5096402;28;19920;-73
2023/10/21 07:19:15;;;;;;;;;;;;;;;10.68;100.00;97774.94;5098077;28;19926;-73
2023/10/21 07:21:59;;;;;;;;;;;;;;;10.70;100.00;97781.75;5094417;28;19979;-73
2023/10/21 07:24:43;;;;;;;;;;;;;;;10.71;100.00;97774.22;5097438;28;19966;-73
2023/10/21 07:27:27;;;;;;;;;;;;;;;10.72;100.00;97773.84;5096626;28;20397;-73
2023/10/21 07:30:11;;;;;;;;;;;;;;;10.73;100.00;97783.00;5091916;28;20018;-73
2023/10/21 07:32:55;;;;;;;;;;;;;;;10.72;100.00;97779.41;5087517;28;20399;-73
2023/10/21 07:35:39;;;;;;;;;;;;;;;10.78;100.00;97782.72;5097763;28;20523;-74
2023/10/21 07:38:23;;;;;;;;;;;;;;;10.79;100.00;97789.09;5093620;28;19942;-74
2023/10/21 07:41:13;;;;;;;;;;;;;;;10.80;100.00;97790.69;5092401;28;19924;-73
2023/10/21 07:43:57;;;;;;;;;;;;;;;10.83;100.00;97778.84;5100099;28;19957;-73
2023/10/21 07:46:41;;;;;;;;;;;;;;;10.86;100.00;97794.78;5095371;28;19920;-73
2023/10/21 07:49:25;;;;;;;;;;;;;;;10.89;100.00;97794.88;5093716;28;19919;-73
2023/10/21 07:52:09;;;;;;;;;;;;;;;10.92;100.00;97793.31;5094010;28;19919;-73
2023/10/21 07:54:54;;;;;;;;;;;;;;;10.96;100.00;97788.69;5094881;28;19924;-73
2023/10/21 07:57:41;;;;;;;;;;;;;;;11.00;100.00;97800.66;5079201;28;19949;-73
2023/10/21 08:00:25;;;;;;;;;;;;;;;11.05;100.00;97797.59;5092975;28;20008;-73
2023/10/21 08:03:09;;;;;;;;;;;;;;;11.11;100.00;97806.44;5124439;27;19919;-73
2023/10/21 08:05:53;;;;;;;;;;;;;;;11.15;100.00;97799.00;5093374;28;19918;-73
2023/10/21 08:08:37;;;;;;;;;;;;;;;11.18;100.00;97789.94;5090669;28;19919;-73
2023/10/21 08:11:22;;;;;;;;;;;;;;;11.24;100.00;97804.34;5107807;28;20268;-73
2023/10/21 08:14:06;;;;;;;;;;;;;;;11.27;100.00;97800.84;5078987;28;20042;-74
2023/10/21 08:16:50;;;;;;;;;;;;;;;11.31;100.00;97796.16;5091167;28;19919;-74
2023/10/21 08:19:34;;;;;;;;;;;;;;;11.33;100.00;97797.41;5098294;28;19957;-73
2023/10/21 08:22:18;;;;;;;;;;;;;;;11.39;100.00;97804.31;5112005;28;19923;-73
2023/10/21 08:25:02;;;;;;;;;;;;;;;11.42;100.00;97802.75;5100332;28;19969;-73
2023/10/21 08:27:46;;;;;;;;;;;;;;;11.43;100.00;97806.34;5091005;28;20232;-73
2023/10/21 08:30:30;;;;;;;;;;;;;;;11.44;100.00;97813.50;5104750;28;20010;-73
2023/10/21 08:33:14;;;;;;;;;;;;;;;11.49;100.00;97805.69;5100154;28;19939;-73
2023/10/21 08:35:58;;;;;;;;;;;;;;;11.48;100.00;97809.63;5087870;28;20013;-74
2023/10/21 08:38:43;;;;;;;;;;;;;;;11.51;100.00;97827.56;5098951;28;19927;-73
2023/10/21 08:41:28;;;;;;;;;;;;;;;11.52;100.00;97818.03;5113008;28;19922;-73
2023/10/21 08:44:12;;;;;;;;;;;;;;;11.53;100.00;97839.91;5067424;28;19999;-74
2023/10/21 08:46:57;;;;;;;;;;;;;;;11.52;100.00;97838.28;5084853;28;20003;-73
2023/10/21 08:49:45;;;;;;;;;;;;;;;11.56;100.00;97841.13;5079478;28;19966;-74
2023/10/21 08:52:29;;;;;;;;;;;;;;;11.54;100.00;97843.50;5091046;28;19919;-73
2023/10/21 08:55:13;;;;;;;;;;;;;;;11.57;100.00;97849.13;5093033;28;19979;-73
2023/10/21 08:57:57;;;;;;;;;;;;;;;11.58;100.00;97845.16;5099110;28;19922;-73
2023/10/21 09:00:42;;;;;;;;;;;;;;;11.58;100.00;97841.59;5078383;28;19962;-73
2023/10/21 09:03:26;;;;;;;;;;;;;;;11.59;100.00;97849.56;5125680;27;19918;-73
2023/10/21 09:06:11;;;;;;;;;;;;;;;11.63;100.00;97857.97;5092869;28;19926;-73
2023/10/21 09:08:54;;;;;;;;;;;;;;;11.64;100.00;97851.22;5084067;28;19919;-73
2023/10/21 09:11:38;;;;;;;;;;;;;;;11.66;100.00;97842.53;5091755;28;19927;-73
2023/10/21 09:14:22;;;;;;;;;;;;;;;11.66;100.00;97859.22;5093403;28;19991;-73
2023/10/21 09:17:06;;;;;;;;;;;;;;;11.68;100.00;97868.00;5093087;28;19965;-73
2023/10/21 09:19:51;;;;;;;;;;;;;;;11.70;100.00;97860.91;5084891;28;19931;-73
2023/10/21 09:22:36;;;;;;;;;;;;;;;11.69;100.00;97872.38;5095406;28;19923;-73
2023/10/21 09:25:20;;;;;;;;;;;;;;;11.70;100.00;97877.59;5078105;28;19919;-73
2023/10/21 09:28:04;;;;;;;;;;;;;;;11.74;100.00;97880.44;5086232;28;19993;-73
2023/10/21 09:30:58;;;;;;;;;;;;;;;11.76;100.00;97875.31;5099056;28;19919;-73
2023/10/21 09:33:53;;;;;;;;;;;;;;;11.74;100.00;97872.91;5079348;28;19962;-73
2023/10/21 09:36:40;;;;;;;;;;;;;;;11.78;100.00;97881.31;5088825;28;20050;-73
2023/10/21 09:39:43;;;;;;;;;;;;;;;11.77;100.00;97882.50;5086304;28;19935;-73
2023/10/21 09:42:27;;;;;;;;;;;;;;;11.79;100.00;97885.72;5084977;28;19930;-73
2023/10/21 09:45:11;;;;;;;;;;;;;;;11.83;100.00;97892.94;5099030;28;19919;-73
2023/10/21 09:47:55;;;;;;;;;;;;;;;11.88;100.00;97897.44;5091946;28;20319;-73
2023/10/21 09:50:42;;;;;;;;;;;;;;;11.89;100.00;97895.47;5094220;28;19932;-73
2023/10/21 09:53:28;;;;;;;;;;;;;;;11.88;100.00;97900.22;5085875;28;19963;-73
2023/10/21 09:56:14;;;;;;;;;;;;;;;11.92;100.00;97900.28;5091881;28;20412;-73
2023/10/21 09:58:59;;;;;;;;;;;;;;;11.93;100.00;97907.47;5085243;28;20007;-73
2023/10/21 10:01:44;;;;;;;;;;;;;;;11.95;100.00;97905.13;5084296;28;19935;-74
2023/10/21 10:04:32;;;;;;;;;;;;;;;11.94;100.00;97909.09;5083238;28;20275;-73
2023/10/21 10:07:17;;;;;;;;;;;;;;;11.96;100.00;97917.88;5097505;28;20264;-74
2023/10/21 10:10:04;;;;;;;;;;;;;;;11.98;100.00;97912.72;5095950;28;19919;-73
2023/10/21 10:13:09;;;;;;;;;;;;;;;11.97;100.00;97925.84;5098387;28;20268;-73
2023/10/21 10:15:54;;;;;;;;;;;;;;;11.98;100.00;97935.81;5097182;28;19923;-73
2023/10/21 10:18:38;;;;;;;;;;;;;;;11.98;100.00;97933.03;5091288;28;20410;-74
2023/10/21 10:21:22;;;;;;;;;;;;;;;11.98;100.00;97948.88;5095628;28;20019;-73
2023/10/21 10:24:07;;;;;;;;;;;;;;;11.97;100.00;97944.50;5082767;28;19934;-73
2023/10/21 10:26:51;;;;;;;;;;;;;;;11.98;100.00;97957.22;5108039;28;19946;-73
2023/10/21 10:29:35;;;;;;;;;;;;;;;11.97;100.00;97966.75;5084433;28;19934;-73
2023/10/21 10:32:20;;;;;;;;;;;;;;;11.98;100.00;97971.13;5093810;28;19923;-73
2023/10/21 10:35:06;;;;;;;;;;;;;;;12.00;100.00;97966.81;5092491;28;20119;-73
2023/10/21 10:37:50;;;;;;;;;;;;;;;11.97;100.00;97987.03;5085051;28;20469;-73
2023/10/21 10:40:40;;;;;;;;;;;;;;;11.99;100.00;97995.81;5090689;28;19923;-73
2023/10/21 10:43:24;;;;;;;;;;;;;;;12.01;100.00;97995.47;5083141;28;19920;-73
2023/10/21 10:46:09;;;;;;;;;;;;;;;12.01;100.00;97996.28;5096964;28;19919;-73
2023/10/21 10:48:53;;;;;;;;;;;;;;;12.02;100.00;98002.63;5082782;28;19920;-73
2023/10/21 10:51:43;;;;;;;;;;;;;;;12.05;100.00;98007.47;5095917;28;20096;-73
2023/10/21 10:54:28;;;;;;;;;;;;;;;12.05;100.00;98004.69;5072993;28;19927;-73
2023/10/21 10:57:16;;;;;;;;;;;;;;;12.04;100.00;98014.22;5096396;28;19919;-73
2023/10/21 11:00:00;;;;;;;;;;;;;;;12.10;100.00;98014.72;5094389;28;19958;-73
2023/10/21 11:02:44;;;;;;;;;;;;;;;12.09;100.00;98022.28;5086304;28;19967;-73
2023/10/21 11:05:28;;;;;;;;;;;;;;;12.07;100.00;98013.47;5070144;28;19970;-73
2023/10/21 11:08:13;;;;;;;;;;;;;;;12.10;100.00;98015.53;5082166;28;19919;-73
2023/10/21 11:11:06;;;;;;;;;;;;;;;12.09;100.00;98038.97;5096684;28;19962;-73
2023/10/21 11:13:50;;;;;;;;;;;;;;;12.13;100.00;98028.69;5095177;28;19923;-73
2023/10/21 11:16:34;;;;;;;;;;;;;;;12.14;100.00;98030.31;5096409;28;19965;-73
2023/10/21 11:19:18;;;;;;;;;;;;;;;12.15;100.00;98026.38;5093067;28;19920;-73
2023/10/21 11:22:07;;;;;;;;;;;;;;;12.18;100.00;98031.19;5090580;28;19919;-73
2023/10/21 11:24:51;;;;;;;;;;;;;;;12.19;100.00;98040.34;5084822;28;19959;-73
2023/10/21 11:27:36;;;;;;;;;;;;;;;12.22;100.00;98040.41;5096491;28;19954;-76
2023/10/21 11:30:22;;;;;;;;;;;;;;;12.24;100.00;98046.44;5090803;28;19923;-73
2023/10/21 11:33:10;;;;;;;;;;;;;;;12.29;100.00;98053.69;5076335;28;20428;-73
2023/10/21 11:35:54;;;;;;;;;;;;;;;12.30;100.00;98049.72;5095642;28;19920;-73
2023/10/21 11:38:38;;;;;;;;;;;;;;;12.30;100.00;98058.88;5092096;28;19970;-73
2023/10/21 11:41:22;;;;;;;;;;;;;;;12.35;100.00;98059.78;5094776;28;19919;-73
2023/10/21 11:44:08;;;;;;;;;;;;;;;12.37;100.00;98065.75;5079730;28;20373;-73
2023/10/21 11:47:03;;;;;;;;;;;;;;;12.40;100.00;98065.84;5090351;28;19919;-73
2023/10/21 11:49:48;;;;;;;;;;;;;;;12.43;100.00;98075.47;5079237;28;19924;-73
2023/10/21 11:52:32;;;;;;;;;;;;;;;12.47;100.00;98076.31;5090995;28;19918;-73
2023/10/21 11:55:32;;;;;;;;;;;;;;;12.51;100.00;98083.59;5094582;28;19923;-73
2023/10/21 12:02:21;;;;;;;;;;;;;;;12.53;100.00;98086.00;5090445;28;20410;-73
2023/10/21 12:19:25;;;;;;;;;;;;;;;12.60;100.00;98108.44;5097750;28;20402;-73
2023/10/21 12:31:53;;;;;;;;;;;;;;;12.64;100.00;98119.63;5089695;28;19961;-73
2023/10/21 12:40:59;;;;;;;;;;;;;;;12.64;100.00;98148.28;5095055;28;19933;-73
2023/10/21 12:43:48;;;;;;;;;;;;;;;12.66;100.00;98150.72;5092762;28;19965;-73
2023/10/21 12:46:38;;;;;;;;;;;;;;;12.65;100.00;98161.03;5092427;28;19934;-73
2023/10/21 12:49:24;;;;;;;;;;;;;;;12.66;100.00;98159.88;5089142;28;19961;-73
2023/10/21 12:52:11;;;;;;;;;;;;;;;12.64;100.00;98164.19;5095988;28;19995;-73
2023/10/21 12:54:55;;;;;;;;;;;;;;;12.63;100.00;98180.09;5093086;28;19923;-73
2023/10/21 12:57:40;;;;;;;;;;;;;;;12.65;100.00;98182.53;5094887;28;19962;-73
2023/10/21 13:00:25;;;;;;;;;;;;;;;12.67;100.00;98175.38;5092574;28;19919;-73
2023/10/21 13:03:10;;;;;;;;;;;;;;;12.67;100.00;98186.53;5105450;28;19962;-73
2023/10/21 13:05:54;;;;;;;;;;;;;;;12.65;100.00;98182.53;5078052;28;19920;-73
2023/10/21 13:08:38;;;;;;;;;;;;;;;12.67;100.00;98189.31;5078403;28;19962;-73
2023/10/21 13:11:22;;;;;;;;;;;;;;;12.67;100.00;98192.09;5125346;27;19919;-73
2023/10/21 13:14:07;;;;;;;;;;;;;;;12.66;100.00;98186.91;5092519;28;19927;-73
2023/10/21 13:16:52;;;;;;;;;;;;;;;12.66;100.00;98200.84;5087161;28;19919;-73
2023/10/21 13:19:36;;;;;;;;;;;;;;;12.67;100.00;98196.88;5096600;28;19919;-73
2023/10/21 13:22:20;;;;;;;;;;;;;;;12.63;100.00;98205.16;5098334;28;19920;-73
2023/10/21 13:25:07;;;;;;;;;;;;;;;12.64;100.00;98203.97;5099172;28;20405;-73
2023/10/21 13:27:51;;;;;;;;;;;;;;;12.64;100.00;98203.97;5099051;28;19919;-73
2023/10/21 13:30:35;;;;;;;;;;;;;;;12.65;100.00;98215.94;5094816;28;20375;-73
2023/10/21 13:33:19;;;;;;;;;;;;;;;12.65;100.00;98224.28;5104866;28;19922;-73
2023/10/21 13:36:05;;;;;;;;;;;;;;;12.64;100.00;98225.44;5088659;28;19919;-73
2023/10/21 13:38:50;;;;;;;;;;;;;;;12.65;100.00;98230.66;5095586;28;19942;-73
2023/10/21 13:41:34;;;;;;;;;;;;;;;12.63;100.00;98233.00;5077603;28;19955;-73
2023/10/21 13:44:18;;;;;;;;;;;;;;;12.60;100.00;98230.94;5086700;28;19962;-73
2023/10/21 13:47:02;;;;;;;;;;;;;;;12.60;100.00;98241.28;5083377;28;19935;-73
2023/10/21 13:49:47;;;;;;;;;;;;;;;12.62;100.00;98242.53;5078028;28;19920;-73
2023/10/21 13:52:31;;;;;;;;;;;;;;;12.61;100.00;98243.69;5095066;28;20000;-73
2023/10/21 13:55:16;;;;;;;;;;;;;;;12.62;100.00;98250.88;5080926;28;19924;-73
2023/10/21 13:58:00;;;;;;;;;;;;;;;12.62;100.00;98259.25;5098799;28;20380;-73
2023/10/21 14:00:44;;;;;;;;;;;;;;;12.62;100.00;98262.03;5085328;28;19918;-73
2023/10/21 14:03:28;;;;;;;;;;;;;;;12.63;100.00;98271.19;5097481;28;20007;-73
2023/10/21 14:06:12;;;;;;;;;;;;;;;12.61;100.00;98265.97;5097147;28;19919;-73
2023/10/21 14:08:56;;;;;;;;;;;;;;;12.62;100.00;98278.72;5097167;28;19950;-73
2023/10/21 14:11:40;;;;;;;;;;;;;;;12.62;100.00;98284.31;5090913;28;19919;-73
2023/10/21 14:14:24;;;;;;;;;;;;;;;12.60;100.00;98272.72;5093454;28;19923;-73
2023/10/21 14:17:08;;;;;;;;;;;;;;;12.61;100.00;98288.22;5108791;28;19956;-73
2023/10/21 14:19:53;;;;;;;;;;;;;;;12.60;100.00;98288.63;5078079;28;20327;-73
2023/10/21 14:22:38;;;;;;;;;;;;;;;12.61;100.00;98282.66;5093721;28;19968;-73
2023/10/21 14:25:22;;;;;;;;;;;;;;;12.63;100.00;98290.66;5096752;28;19961;-73
2023/10/21 14:28:10;;;;;;;;;;;;;;;12.62;100.00;98301.00;5086059;28;19958;-73
2023/10/21 14:30:57;;;;;;;;;;;;;;;12.62;100.00;98294.59;5094988;28;19919;-73
2023/10/21 14:33:40;;;;;;;;;;;;;;;12.63;100.00;98296.25;5085047;28;20388;-73
2023/10/21 14:36:24;;;;;;;;;;;;;;;12.62;100.00;98295.44;5093344;28;19970;-73
2023/10/21 14:39:09;;;;;;;;;;;;;;;12.59;100.00;98296.16;5091177;28;19918;-73